sensor_id;sensor_type;location;lat;lon;timestamp;P1;durP1;ratioP1;P2;durP2;ratioP2
6243;SDS011;3155;49.940;8.450;2024-01-07T00:02:08;145.63;;;137.10;;
6243;SDS011;3155;49.940;8.450;2024-01-07T00:04:35;141.68;;;133.45;;
6243;SDS011;3155;49.940;8.450;2024-01-07T00:07:04;144.65;;;136.38;;
6243;SDS011;3155;49.940;8.450;2024-01-07T00:09:34;147.85;;;139.20;;
6243;SDS011;3155;49.940;8.450;2024-01-07T00:12:04;138.82;;;130.88;;
6243;SDS011;3155;49.940;8.450;2024-01-07T00:14:33;157.60;;;148.27;;
6243;SDS011;3155;49.940;8.450;2024-01-07T00:17:00;159.55;;;150.27;;
6243;SDS011;3155;49.940;8.450;2024-01-07T00:19:30;139.43;;;131.20;;
6243;SDS011;3155;49.940;8.450;2024-01-07T00:21:58;134.00;;;126.15;;
6243;SDS011;3155;49.940;8.450;2024-01-07T00:24:25;150.68;;;141.95;;
6243;SDS011;3155;49.940;8.450;2024-01-07T00:26:54;141.27;;;133.18;;
6243;SDS011;3155;49.940;8.450;2024-01-07T00:29:21;131.13;;;123.68;;
6243;SDS011;3155;49.940;8.450;2024-01-07T00:31:49;125.97;;;118.72;;
6243;SDS011;3155;49.940;8.450;2024-01-07T00:34:16;130.50;;;123.13;;
6243;SDS011;3155;49.940;8.450;2024-01-07T00:36:43;134.10;;;126.50;;
6243;SDS011;3155;49.940;8.450;2024-01-07T00:39:11;138.53;;;130.63;;
6243;SDS011;3155;49.940;8.450;2024-01-07T00:41:38;156.37;;;147.57;;
6243;SDS011;3155;49.940;8.450;2024-01-07T00:44:05;133.02;;;125.38;;
6243;SDS011;3155;49.940;8.450;2024-01-07T00:46:32;147.40;;;138.95;;
6243;SDS011;3155;49.940;8.450;2024-01-07T00:48:59;142.38;;;134.15;;
6243;SDS011;3155;49.940;8.450;2024-01-07T00:51:27;144.52;;;136.35;;
6243;SDS011;3155;49.940;8.450;2024-01-07T00:53:54;205.57;;;194.75;;
6243;SDS011;3155;49.940;8.450;2024-01-07T00:56:27;132.70;;;125.07;;
6243;SDS011;3155;49.940;8.450;2024-01-07T00:58:54;132.07;;;124.43;;
6243;SDS011;3155;49.940;8.450;2024-01-07T01:01:21;117.38;;;110.47;;
6243;SDS011;3155;49.940;8.450;2024-01-07T01:03:49;116.78;;;109.88;;
6243;SDS011;3155;49.940;8.450;2024-01-07T01:06:16;116.25;;;109.43;;
6243;SDS011;3155;49.940;8.450;2024-01-07T01:08:43;119.25;;;112.20;;
6243;SDS011;3155;49.940;8.450;2024-01-07T01:11:10;120.88;;;113.93;;
6243;SDS011;3155;49.940;8.450;2024-01-07T01:13:38;123.15;;;115.68;;
6243;SDS011;3155;49.940;8.450;2024-01-07T01:16:08;121.60;;;114.35;;
6243;SDS011;3155;49.940;8.450;2024-01-07T01:18:35;125.97;;;118.68;;
6243;SDS011;3155;49.940;8.450;2024-01-07T01:21:03;125.50;;;118.05;;
6243;SDS011;3155;49.940;8.450;2024-01-07T01:23:30;120.60;;;113.40;;
6243;SDS011;3155;49.940;8.450;2024-01-07T01:25:58;119.90;;;112.90;;
6243;SDS011;3155;49.940;8.450;2024-01-07T01:28:25;122.05;;;114.82;;
6243;SDS011;3155;49.940;8.450;2024-01-07T01:30:55;118.97;;;111.95;;
6243;SDS011;3155;49.940;8.450;2024-01-07T01:33:22;120.85;;;113.45;;
6243;SDS011;3155;49.940;8.450;2024-01-07T01:35:50;132.75;;;125.05;;
6243;SDS011;3155;49.940;8.450;2024-01-07T01:38:17;125.17;;;117.63;;
6243;SDS011;3155;49.940;8.450;2024-01-07T01:40:44;125.50;;;118.05;;
6243;SDS011;3155;49.940;8.450;2024-01-07T01:43:24;129.30;;;121.68;;
6243;SDS011;3155;49.940;8.450;2024-01-07T01:45:58;121.00;;;113.75;;
6243;SDS011;3155;49.940;8.450;2024-01-07T01:48:26;125.67;;;118.27;;
6243;SDS011;3155;49.940;8.450;2024-01-07T01:50:59;126.15;;;118.75;;
6243;SDS011;3155;49.940;8.450;2024-01-07T01:53:27;128.32;;;120.72;;
6243;SDS011;3155;49.940;8.450;2024-01-07T01:55:55;126.78;;;119.40;;
6243;SDS011;3155;49.940;8.450;2024-01-07T01:58:23;123.22;;;116.03;;
6243;SDS011;3155;49.940;8.450;2024-01-07T02:00:50;134.73;;;126.93;;
6243;SDS011;3155;49.940;8.450;2024-01-07T02:03:18;127.60;;;120.10;;
6243;SDS011;3155;49.940;8.450;2024-01-07T02:05:45;133.63;;;125.93;;
6243;SDS011;3155;49.940;8.450;2024-01-07T02:08:12;124.70;;;117.35;;
6243;SDS011;3155;49.940;8.450;2024-01-07T02:10:40;124.50;;;117.15;;
6243;SDS011;3155;49.940;8.450;2024-01-07T02:13:08;111.70;;;105.18;;
6243;SDS011;3155;49.940;8.450;2024-01-07T02:15:35;131.18;;;123.63;;
6243;SDS011;3155;49.940;8.450;2024-01-07T02:18:03;118.50;;;111.65;;
6243;SDS011;3155;49.940;8.450;2024-01-07T02:20:36;120.32;;;113.30;;
6243;SDS011;3155;49.940;8.450;2024-01-07T02:23:03;103.63;;;97.65;;
6243;SDS011;3155;49.940;8.450;2024-01-07T02:25:37;121.88;;;114.80;;
6243;SDS011;3155;49.940;8.450;2024-01-07T02:28:04;135.40;;;127.65;;
6243;SDS011;3155;49.940;8.450;2024-01-07T02:30:32;124.22;;;116.95;;
6243;SDS011;3155;49.940;8.450;2024-01-07T02:33:03;122.15;;;115.05;;
6243;SDS011;3155;49.940;8.450;2024-01-07T02:35:31;125.15;;;117.90;;
6243;SDS011;3155;49.940;8.450;2024-01-07T02:37:58;117.00;;;110.00;;
6243;SDS011;3155;49.940;8.450;2024-01-07T02:40:25;113.28;;;106.43;;
6243;SDS011;3155;49.940;8.450;2024-01-07T02:42:52;85.65;;;80.43;;
6243;SDS011;3155;49.940;8.450;2024-01-07T02:45:22;99.75;;;93.90;;
6243;SDS011;3155;49.940;8.450;2024-01-07T02:47:49;117.43;;;110.43;;
6243;SDS011;3155;49.940;8.450;2024-01-07T02:50:17;114.20;;;107.30;;
6243;SDS011;3155;49.940;8.450;2024-01-07T02:52:47;122.38;;;115.05;;
6243;SDS011;3155;49.940;8.450;2024-01-07T02:55:14;122.27;;;115.10;;
6243;SDS011;3155;49.940;8.450;2024-01-07T02:57:45;121.27;;;114.00;;
6243;SDS011;3155;49.940;8.450;2024-01-07T03:00:12;117.18;;;110.07;;
6243;SDS011;3155;49.940;8.450;2024-01-07T03:02:39;119.45;;;112.32;;
6243;SDS011;3155;49.940;8.450;2024-01-07T03:05:07;118.75;;;111.53;;
6243;SDS011;3155;49.940;8.450;2024-01-07T03:07:37;102.20;;;96.05;;
6243;SDS011;3155;49.940;8.450;2024-01-07T03:10:06;106.45;;;100.18;;
6243;SDS011;3155;49.940;8.450;2024-01-07T03:12:33;108.93;;;102.38;;
6243;SDS011;3155;49.940;8.450;2024-01-07T03:15:03;113.30;;;106.60;;
6243;SDS011;3155;49.940;8.450;2024-01-07T03:17:32;118.00;;;110.82;;
6243;SDS011;3155;49.940;8.450;2024-01-07T03:19:59;114.75;;;108.15;;
6243;SDS011;3155;49.940;8.450;2024-01-07T03:22:27;110.40;;;103.88;;
6243;SDS011;3155;49.940;8.450;2024-01-07T03:24:54;111.80;;;105.13;;
6243;SDS011;3155;49.940;8.450;2024-01-07T03:27:21;84.35;;;79.25;;
6243;SDS011;3155;49.940;8.450;2024-01-07T03:29:48;110.78;;;104.25;;
6243;SDS011;3155;49.940;8.450;2024-01-07T03:32:16;111.05;;;104.35;;
6243;SDS011;3155;49.940;8.450;2024-01-07T03:34:43;118.18;;;111.18;;
6243;SDS011;3155;49.940;8.450;2024-01-07T03:37:11;119.10;;;111.87;;
6243;SDS011;3155;49.940;8.450;2024-01-07T03:39:38;117.10;;;110.10;;
6243;SDS011;3155;49.940;8.450;2024-01-07T03:42:05;107.53;;;101.05;;
6243;SDS011;3155;49.940;8.450;2024-01-07T03:44:38;91.57;;;86.03;;
6243;SDS011;3155;49.940;8.450;2024-01-07T03:47:06;109.72;;;103.30;;
6243;SDS011;3155;49.940;8.450;2024-01-07T03:49:38;104.20;;;98.10;;
6243;SDS011;3155;49.940;8.450;2024-01-07T03:52:08;118.55;;;111.65;;
6243;SDS011;3155;49.940;8.450;2024-01-07T03:54:36;124.03;;;116.90;;
6243;SDS011;3155;49.940;8.450;2024-01-07T03:57:03;118.88;;;111.85;;
6243;SDS011;3155;49.940;8.450;2024-01-07T03:59:30;104.95;;;98.85;;
6243;SDS011;3155;49.940;8.450;2024-01-07T04:01:57;114.77;;;107.67;;
6243;SDS011;3155;49.940;8.450;2024-01-07T04:04:24;94.55;;;88.45;;
6243;SDS011;3155;49.940;8.450;2024-01-07T04:06:52;74.35;;;69.63;;
6243;SDS011;3155;49.940;8.450;2024-01-07T04:09:19;79.20;;;74.37;;
6243;SDS011;3155;49.940;8.450;2024-01-07T04:11:46;85.05;;;79.82;;
6243;SDS011;3155;49.940;8.450;2024-01-07T04:14:14;82.50;;;77.38;;
6243;SDS011;3155;49.940;8.450;2024-01-07T04:16:42;87.82;;;82.47;;
6243;SDS011;3155;49.940;8.450;2024-01-07T04:19:10;89.80;;;84.10;;
6243;SDS011;3155;49.940;8.450;2024-01-07T04:21:37;94.90;;;89.07;;
6243;SDS011;3155;49.940;8.450;2024-01-07T04:24:04;92.50;;;87.00;;
6243;SDS011;3155;49.940;8.450;2024-01-07T04:26:32;98.40;;;92.32;;
6243;SDS011;3155;49.940;8.450;2024-01-07T04:29:04;93.40;;;87.90;;
6243;SDS011;3155;49.940;8.450;2024-01-07T04:31:32;95.97;;;90.25;;
6243;SDS011;3155;49.940;8.450;2024-01-07T04:34:00;101.07;;;95.10;;
6243;SDS011;3155;49.940;8.450;2024-01-07T04:36:30;100.85;;;94.65;;
6243;SDS011;3155;49.940;8.450;2024-01-07T04:38:57;97.55;;;91.85;;
6243;SDS011;3155;49.940;8.450;2024-01-07T04:41:24;98.85;;;92.93;;
6243;SDS011;3155;49.940;8.450;2024-01-07T04:43:51;88.65;;;83.35;;
6243;SDS011;3155;49.940;8.450;2024-01-07T04:46:19;77.60;;;72.78;;
6243;SDS011;3155;49.940;8.450;2024-01-07T04:48:46;85.93;;;80.60;;
6243;SDS011;3155;49.940;8.450;2024-01-07T04:51:13;93.03;;;87.43;;
6243;SDS011;3155;49.940;8.450;2024-01-07T04:53:40;88.82;;;83.50;;
6243;SDS011;3155;49.940;8.450;2024-01-07T04:56:08;84.68;;;79.55;;
6243;SDS011;3155;49.940;8.450;2024-01-07T04:58:37;83.75;;;78.65;;
6243;SDS011;3155;49.940;8.450;2024-01-07T05:01:04;91.35;;;85.90;;
6243;SDS011;3155;49.940;8.450;2024-01-07T05:03:31;101.22;;;95.07;;
6243;SDS011;3155;49.940;8.450;2024-01-07T05:06:00;103.63;;;97.45;;
6243;SDS011;3155;49.940;8.450;2024-01-07T05:08:28;138.20;;;131.10;;
6243;SDS011;3155;49.940;8.450;2024-01-07T05:10:55;97.75;;;92.25;;
6243;SDS011;3155;49.940;8.450;2024-01-07T05:13:25;135.52;;;128.20;;
6243;SDS011;3155;49.940;8.450;2024-01-07T05:15:52;117.70;;;111.17;;
6243;SDS011;3155;49.940;8.450;2024-01-07T05:18:21;138.93;;;131.77;;
6243;SDS011;3155;49.940;8.450;2024-01-07T05:20:51;123.82;;;117.15;;
6243;SDS011;3155;49.940;8.450;2024-01-07T05:23:18;180.82;;;171.70;;
6243;SDS011;3155;49.940;8.450;2024-01-07T05:25:46;198.50;;;188.27;;
6243;SDS011;3155;49.940;8.450;2024-01-07T05:28:13;130.93;;;123.70;;
6243;SDS011;3155;49.940;8.450;2024-01-07T05:30:44;99.05;;;93.00;;
6243;SDS011;3155;49.940;8.450;2024-01-07T05:33:11;102.95;;;96.80;;
6243;SDS011;3155;49.940;8.450;2024-01-07T05:35:39;119.43;;;112.47;;
6243;SDS011;3155;49.940;8.450;2024-01-07T05:38:06;122.28;;;115.47;;
6243;SDS011;3155;49.940;8.450;2024-01-07T05:40:33;138.57;;;130.98;;
6243;SDS011;3155;49.940;8.450;2024-01-07T05:43:00;181.45;;;171.68;;
6243;SDS011;3155;49.940;8.450;2024-01-07T05:45:27;177.45;;;167.90;;
6243;SDS011;3155;49.940;8.450;2024-01-07T05:47:55;149.27;;;141.18;;
6243;SDS011;3155;49.940;8.450;2024-01-07T05:50:22;154.93;;;146.43;;
6243;SDS011;3155;49.940;8.450;2024-01-07T05:52:49;163.63;;;154.75;;
6243;SDS011;3155;49.940;8.450;2024-01-07T05:55:16;125.43;;;118.32;;
6243;SDS011;3155;49.940;8.450;2024-01-07T05:57:47;119.30;;;112.35;;
6243;SDS011;3155;49.940;8.450;2024-01-07T06:00:16;126.45;;;118.72;;
6243;SDS011;3155;49.940;8.450;2024-01-07T06:02:43;124.63;;;117.50;;
6243;SDS011;3155;49.940;8.450;2024-01-07T06:05:10;128.30;;;120.85;;
6243;SDS011;3155;49.940;8.450;2024-01-07T06:07:38;162.05;;;153.27;;
6243;SDS011;3155;49.940;8.450;2024-01-07T06:10:05;132.03;;;124.47;;
6243;SDS011;3155;49.940;8.450;2024-01-07T06:12:36;145.40;;;137.13;;
6243;SDS011;3155;49.940;8.450;2024-01-07T06:15:03;188.20;;;178.40;;
6243;SDS011;3155;49.940;8.450;2024-01-07T06:17:31;254.60;;;241.80;;
6243;SDS011;3155;49.940;8.450;2024-01-07T06:19:59;103.80;;;97.63;;
6243;SDS011;3155;49.940;8.450;2024-01-07T06:22:26;103.07;;;97.07;;
6243;SDS011;3155;49.940;8.450;2024-01-07T06:24:53;134.85;;;127.07;;
6243;SDS011;3155;49.940;8.450;2024-01-07T06:27:21;134.82;;;127.07;;
6243;SDS011;3155;49.940;8.450;2024-01-07T06:29:48;138.50;;;130.37;;
6243;SDS011;3155;49.940;8.450;2024-01-07T06:32:18;181.60;;;172.15;;
6243;SDS011;3155;49.940;8.450;2024-01-07T06:34:45;117.45;;;110.43;;
6243;SDS011;3155;49.940;8.450;2024-01-07T06:37:15;112.75;;;106.25;;
6243;SDS011;3155;49.940;8.450;2024-01-07T06:39:45;97.57;;;91.63;;
6243;SDS011;3155;49.940;8.450;2024-01-07T06:42:14;103.75;;;97.53;;
6243;SDS011;3155;49.940;8.450;2024-01-07T06:44:41;103.03;;;96.88;;
6243;SDS011;3155;49.940;8.450;2024-01-07T06:47:09;103.90;;;97.78;;
6243;SDS011;3155;49.940;8.450;2024-01-07T06:49:36;110.47;;;104.03;;
6243;SDS011;3155;49.940;8.450;2024-01-07T06:52:03;104.75;;;98.47;;
6243;SDS011;3155;49.940;8.450;2024-01-07T06:54:31;97.63;;;91.78;;
6243;SDS011;3155;49.940;8.450;2024-01-07T06:56:58;114.72;;;107.63;;
6243;SDS011;3155;49.940;8.450;2024-01-07T06:59:25;123.22;;;116.13;;
6243;SDS011;3155;49.940;8.450;2024-01-07T07:01:52;155.00;;;146.15;;
6243;SDS011;3155;49.940;8.450;2024-01-07T07:04:22;170.38;;;161.25;;
6243;SDS011;3155;49.940;8.450;2024-01-07T07:06:49;133.23;;;125.72;;
6243;SDS011;3155;49.940;8.450;2024-01-07T07:09:16;127.50;;;120.22;;
6243;SDS011;3155;49.940;8.450;2024-01-07T07:11:43;115.50;;;108.97;;
6243;SDS011;3155;49.940;8.450;2024-01-07T07:14:11;147.57;;;139.20;;
6243;SDS011;3155;49.940;8.450;2024-01-07T07:16:38;177.73;;;168.15;;
6243;SDS011;3155;49.940;8.450;2024-01-07T07:19:05;154.00;;;145.68;;
6243;SDS011;3155;49.940;8.450;2024-01-07T07:21:32;120.75;;;113.78;;
6243;SDS011;3155;49.940;8.450;2024-01-07T07:24:00;108.15;;;101.80;;
6243;SDS011;3155;49.940;8.450;2024-01-07T07:26:27;106.93;;;100.65;;
6243;SDS011;3155;49.940;8.450;2024-01-07T07:28:54;139.50;;;132.02;;
6243;SDS011;3155;49.940;8.450;2024-01-07T07:31:21;119.95;;;113.10;;
6243;SDS011;3155;49.940;8.450;2024-01-07T07:33:51;120.55;;;113.40;;
6243;SDS011;3155;49.940;8.450;2024-01-07T07:36:19;122.35;;;115.20;;
6243;SDS011;3155;49.940;8.450;2024-01-07T07:38:46;209.77;;;199.23;;
6243;SDS011;3155;49.940;8.450;2024-01-07T07:41:13;191.00;;;180.68;;
6243;SDS011;3155;49.940;8.450;2024-01-07T07:43:40;182.13;;;172.30;;
6243;SDS011;3155;49.940;8.450;2024-01-07T07:46:08;219.73;;;208.43;;
6243;SDS011;3155;49.940;8.450;2024-01-07T07:48:38;256.48;;;243.23;;
6243;SDS011;3155;49.940;8.450;2024-01-07T07:51:05;261.65;;;248.23;;
6243;SDS011;3155;49.940;8.450;2024-01-07T07:53:32;240.75;;;228.50;;
6243;SDS011;3155;49.940;8.450;2024-01-07T07:56:00;281.05;;;266.90;;
6243;SDS011;3155;49.940;8.450;2024-01-07T07:58:28;177.43;;;168.10;;
6243;SDS011;3155;49.940;8.450;2024-01-07T08:00:55;173.83;;;164.73;;
6243;SDS011;3155;49.940;8.450;2024-01-07T08:03:23;244.43;;;232.10;;
6243;SDS011;3155;49.940;8.450;2024-01-07T08:05:50;272.30;;;258.55;;
6243;SDS011;3155;49.940;8.450;2024-01-07T08:08:17;168.95;;;160.10;;
6243;SDS011;3155;49.940;8.450;2024-01-07T08:10:44;259.67;;;246.68;;
6243;SDS011;3155;49.940;8.450;2024-01-07T08:13:12;183.68;;;174.15;;
6243;SDS011;3155;49.940;8.450;2024-01-07T08:15:40;180.40;;;171.00;;
6243;SDS011;3155;49.940;8.450;2024-01-07T08:18:14;158.13;;;148.93;;
6243;SDS011;3155;49.940;8.450;2024-01-07T08:20:42;103.75;;;97.50;;
6243;SDS011;3155;49.940;8.450;2024-01-07T08:23:09;190.02;;;180.05;;
6243;SDS011;3155;49.940;8.450;2024-01-07T08:25:36;66.20;;;62.10;;
6243;SDS011;3155;49.940;8.450;2024-01-07T08:28:04;233.13;;;221.43;;
6243;SDS011;3155;49.940;8.450;2024-01-07T08:30:31;244.90;;;232.60;;
6243;SDS011;3155;49.940;8.450;2024-01-07T08:32:58;152.25;;;143.93;;
6243;SDS011;3155;49.940;8.450;2024-01-07T08:35:25;113.20;;;106.32;;
6243;SDS011;3155;49.940;8.450;2024-01-07T08:37:53;131.88;;;125.03;;
6243;SDS011;3155;49.940;8.450;2024-01-07T08:40:23;207.80;;;197.23;;
6243;SDS011;3155;49.940;8.450;2024-01-07T08:42:53;86.55;;;81.35;;
6243;SDS011;3155;49.940;8.450;2024-01-07T08:45:20;195.25;;;185.13;;
6243;SDS011;3155;49.940;8.450;2024-01-07T08:47:49;190.17;;;180.57;;
6243;SDS011;3155;49.940;8.450;2024-01-07T08:50:17;204.23;;;193.82;;
6243;SDS011;3155;49.940;8.450;2024-01-07T08:52:46;217.90;;;206.82;;
6243;SDS011;3155;49.940;8.450;2024-01-07T08:55:14;220.35;;;209.23;;
6243;SDS011;3155;49.940;8.450;2024-01-07T08:57:41;205.70;;;195.27;;
6243;SDS011;3155;49.940;8.450;2024-01-07T09:00:10;230.23;;;218.57;;
6243;SDS011;3155;49.940;8.450;2024-01-07T09:02:37;221.88;;;210.88;;
6243;SDS011;3155;49.940;8.450;2024-01-07T09:05:09;193.05;;;183.35;;
6243;SDS011;3155;49.940;8.450;2024-01-07T09:07:38;194.40;;;184.65;;
6243;SDS011;3155;49.940;8.450;2024-01-07T09:10:08;192.27;;;182.55;;
6243;SDS011;3155;49.940;8.450;2024-01-07T09:12:37;222.70;;;211.55;;
6243;SDS011;3155;49.940;8.450;2024-01-07T09:15:05;204.50;;;194.13;;
6243;SDS011;3155;49.940;8.450;2024-01-07T09:17:36;199.02;;;188.90;;
6243;SDS011;3155;49.940;8.450;2024-01-07T09:20:04;199.02;;;188.77;;
6243;SDS011;3155;49.940;8.450;2024-01-07T09:22:34;206.10;;;195.60;;
6243;SDS011;3155;49.940;8.450;2024-01-07T09:25:04;190.00;;;180.05;;
6243;SDS011;3155;49.940;8.450;2024-01-07T09:27:32;195.52;;;185.55;;
6243;SDS011;3155;49.940;8.450;2024-01-07T09:30:03;212.13;;;200.98;;
6243;SDS011;3155;49.940;8.450;2024-01-07T09:32:31;208.13;;;196.73;;
6243;SDS011;3155;49.940;8.450;2024-01-07T09:35:03;220.85;;;209.70;;
6243;SDS011;3155;49.940;8.450;2024-01-07T09:37:32;221.65;;;210.63;;
6243;SDS011;3155;49.940;8.450;2024-01-07T09:39:59;222.82;;;211.63;;
6243;SDS011;3155;49.940;8.450;2024-01-07T09:42:26;257.17;;;244.13;;
6243;SDS011;3155;49.940;8.450;2024-01-07T09:44:57;250.82;;;238.25;;
6243;SDS011;3155;49.940;8.450;2024-01-07T09:47:26;243.82;;;231.65;;
6243;SDS011;3155;49.940;8.450;2024-01-07T09:49:53;220.70;;;208.98;;
6243;SDS011;3155;49.940;8.450;2024-01-07T09:52:20;228.00;;;216.38;;
6243;SDS011;3155;49.940;8.450;2024-01-07T09:54:51;226.63;;;214.68;;
6243;SDS011;3155;49.940;8.450;2024-01-07T09:57:19;179.40;;;170.07;;
6243;SDS011;3155;49.940;8.450;2024-01-07T09:59:48;222.32;;;210.98;;
6243;SDS011;3155;49.940;8.450;2024-01-07T10:02:19;249.27;;;236.48;;
6243;SDS011;3155;49.940;8.450;2024-01-07T10:04:49;261.73;;;248.90;;
6243;SDS011;3155;49.940;8.450;2024-01-07T10:07:17;242.55;;;230.57;;
6243;SDS011;3155;49.940;8.450;2024-01-07T10:09:44;251.50;;;239.15;;
6243;SDS011;3155;49.940;8.450;2024-01-07T10:12:17;247.52;;;235.25;;
6243;SDS011;3155;49.940;8.450;2024-01-07T10:14:44;244.02;;;232.00;;
6243;SDS011;3155;49.940;8.450;2024-01-07T10:17:15;67.50;;;63.30;;
6243;SDS011;3155;49.940;8.450;2024-01-07T10:19:43;208.57;;;198.27;;
6243;SDS011;3155;49.940;8.450;2024-01-07T10:22:12;234.05;;;222.38;;
6243;SDS011;3155;49.940;8.450;2024-01-07T10:24:40;124.78;;;117.55;;
6243;SDS011;3155;49.940;8.450;2024-01-07T10:27:08;223.25;;;212.30;;
6243;SDS011;3155;49.940;8.450;2024-01-07T10:29:35;239.85;;;227.95;;
6243;SDS011;3155;49.940;8.450;2024-01-07T10:32:02;200.48;;;190.27;;
6243;SDS011;3155;49.940;8.450;2024-01-07T10:34:32;221.85;;;210.40;;
6243;SDS011;3155;49.940;8.450;2024-01-07T10:36:59;241.95;;;229.98;;
6243;SDS011;3155;49.940;8.450;2024-01-07T10:39:27;214.38;;;203.50;;
6243;SDS011;3155;49.940;8.450;2024-01-07T10:41:55;113.70;;;107.23;;
6243;SDS011;3155;49.940;8.450;2024-01-07T10:44:26;124.07;;;117.13;;
6243;SDS011;3155;49.940;8.450;2024-01-07T10:46:54;132.73;;;125.40;;
6243;SDS011;3155;49.940;8.450;2024-01-07T10:49:25;124.20;;;117.40;;
6243;SDS011;3155;49.940;8.450;2024-01-07T10:54:20;137.20;;;129.70;;
6243;SDS011;3155;49.940;8.450;2024-01-07T10:56:48;122.43;;;115.50;;
6243;SDS011;3155;49.940;8.450;2024-01-07T10:59:15;107.33;;;100.73;;
6243;SDS011;3155;49.940;8.450;2024-01-07T11:01:43;154.45;;;146.05;;
6243;SDS011;3155;49.940;8.450;2024-01-07T11:04:13;203.02;;;192.68;;
6243;SDS011;3155;49.940;8.450;2024-01-07T11:06:43;214.77;;;203.73;;
6243;SDS011;3155;49.940;8.450;2024-01-07T11:11:50;130.05;;;122.50;;
6243;SDS011;3155;49.940;8.450;2024-01-07T11:17:03;135.05;;;127.15;;
6243;SDS011;3155;49.940;8.450;2024-01-07T11:19:30;150.40;;;141.90;;
6243;SDS011;3155;49.940;8.450;2024-01-07T11:24:44;136.20;;;128.48;;
6243;SDS011;3155;49.940;8.450;2024-01-07T11:27:11;136.57;;;128.65;;
6243;SDS011;3155;49.940;8.450;2024-01-07T11:29:38;138.45;;;130.65;;
6243;SDS011;3155;49.940;8.450;2024-01-07T11:32:05;133.23;;;125.47;;
6243;SDS011;3155;49.940;8.450;2024-01-07T11:34:40;139.95;;;131.95;;
6243;SDS011;3155;49.940;8.450;2024-01-07T11:37:11;129.80;;;122.10;;
6243;SDS011;3155;49.940;8.450;2024-01-07T11:39:42;136.07;;;128.48;;
6243;SDS011;3155;49.940;8.450;2024-01-07T11:42:10;142.35;;;134.25;;
6243;SDS011;3155;49.940;8.450;2024-01-07T11:44:38;131.88;;;124.18;;
6243;SDS011;3155;49.940;8.450;2024-01-07T11:47:11;137.48;;;129.45;;
6243;SDS011;3155;49.940;8.450;2024-01-07T11:49:39;141.73;;;133.82;;
6243;SDS011;3155;49.940;8.450;2024-01-07T11:52:06;136.40;;;128.75;;
6243;SDS011;3155;49.940;8.450;2024-01-07T11:54:34;129.98;;;122.68;;
6243;SDS011;3155;49.940;8.450;2024-01-07T11:57:02;140.35;;;132.52;;
6243;SDS011;3155;49.940;8.450;2024-01-07T11:59:29;138.10;;;130.27;;
6243;SDS011;3155;49.940;8.450;2024-01-07T12:01:59;137.50;;;129.80;;
6243;SDS011;3155;49.940;8.450;2024-01-07T12:04:27;141.80;;;133.70;;
6243;SDS011;3155;49.940;8.450;2024-01-07T12:06:55;134.52;;;126.85;;
6243;SDS011;3155;49.940;8.450;2024-01-07T12:09:22;146.82;;;138.63;;
6243;SDS011;3155;49.940;8.450;2024-01-07T12:11:49;172.80;;;163.43;;
6243;SDS011;3155;49.940;8.450;2024-01-07T12:14:16;184.45;;;174.45;;
6243;SDS011;3155;49.940;8.450;2024-01-07T12:16:49;176.00;;;166.40;;
6243;SDS011;3155;49.940;8.450;2024-01-07T12:19:16;137.25;;;129.50;;
6243;SDS011;3155;49.940;8.450;2024-01-07T12:21:43;142.85;;;134.80;;
6243;SDS011;3155;49.940;8.450;2024-01-07T12:24:14;141.48;;;133.38;;
6243;SDS011;3155;49.940;8.450;2024-01-07T12:26:41;118.10;;;111.00;;
6243;SDS011;3155;49.940;8.450;2024-01-07T12:29:12;142.43;;;134.20;;
6243;SDS011;3155;49.940;8.450;2024-01-07T12:31:41;140.98;;;132.82;;
6243;SDS011;3155;49.940;8.450;2024-01-07T12:34:10;153.48;;;144.55;;
6243;SDS011;3155;49.940;8.450;2024-01-07T12:36:38;144.07;;;135.65;;
6243;SDS011;3155;49.940;8.450;2024-01-07T12:39:06;148.70;;;140.07;;
6243;SDS011;3155;49.940;8.450;2024-01-07T12:41:33;149.50;;;140.50;;
6243;SDS011;3155;49.940;8.450;2024-01-07T12:44:00;163.65;;;154.45;;
6243;SDS011;3155;49.940;8.450;2024-01-07T12:46:27;146.52;;;138.25;;
6243;SDS011;3155;49.940;8.450;2024-01-07T12:48:55;147.88;;;139.23;;
6243;SDS011;3155;49.940;8.450;2024-01-07T12:51:26;163.20;;;153.93;;
6243;SDS011;3155;49.940;8.450;2024-01-07T12:53:53;153.50;;;144.65;;
6243;SDS011;3155;49.940;8.450;2024-01-07T12:56:22;161.60;;;152.70;;
6243;SDS011;3155;49.940;8.450;2024-01-07T12:58:49;145.40;;;136.63;;
6243;SDS011;3155;49.940;8.450;2024-01-07T13:01:17;155.90;;;146.80;;
6243;SDS011;3155;49.940;8.450;2024-01-07T13:03:44;155.55;;;146.48;;
6243;SDS011;3155;49.940;8.450;2024-01-07T13:06:11;157.27;;;148.13;;
6243;SDS011;3155;49.940;8.450;2024-01-07T13:08:39;154.90;;;145.90;;
6243;SDS011;3155;49.940;8.450;2024-01-07T13:11:06;149.55;;;141.05;;
6243;SDS011;3155;49.940;8.450;2024-01-07T13:13:35;158.88;;;149.65;;
6243;SDS011;3155;49.940;8.450;2024-01-07T13:16:02;153.27;;;144.30;;
6243;SDS011;3155;49.940;8.450;2024-01-07T13:18:30;141.73;;;133.73;;
6243;SDS011;3155;49.940;8.450;2024-01-07T13:20:57;153.60;;;144.77;;
6243;SDS011;3155;49.940;8.450;2024-01-07T13:23:24;153.63;;;144.90;;
6243;SDS011;3155;49.940;8.450;2024-01-07T13:25:52;146.50;;;138.27;;
6243;SDS011;3155;49.940;8.450;2024-01-07T13:28:19;144.00;;;135.65;;
6243;SDS011;3155;49.940;8.450;2024-01-07T13:30:48;146.93;;;138.45;;
6243;SDS011;3155;49.940;8.450;2024-01-07T13:33:18;154.23;;;145.43;;
6243;SDS011;3155;49.940;8.450;2024-01-07T13:35:46;138.20;;;130.10;;
6243;SDS011;3155;49.940;8.450;2024-01-07T13:38:16;152.75;;;144.00;;
6243;SDS011;3155;49.940;8.450;2024-01-07T13:40:43;151.20;;;142.48;;
6243;SDS011;3155;49.940;8.450;2024-01-07T13:43:10;145.20;;;136.80;;
6243;SDS011;3155;49.940;8.450;2024-01-07T13:45:38;156.25;;;147.27;;
6243;SDS011;3155;49.940;8.450;2024-01-07T13:48:05;134.13;;;126.43;;
6243;SDS011;3155;49.940;8.450;2024-01-07T13:50:33;162.32;;;153.02;;
6243;SDS011;3155;49.940;8.450;2024-01-07T13:53:01;158.10;;;148.93;;
6243;SDS011;3155;49.940;8.450;2024-01-07T13:55:29;145.50;;;137.18;;
6243;SDS011;3155;49.940;8.450;2024-01-07T13:57:56;152.23;;;143.57;;
6243;SDS011;3155;49.940;8.450;2024-01-07T14:00:23;157.18;;;148.25;;
6243;SDS011;3155;49.940;8.450;2024-01-07T14:02:53;171.55;;;161.45;;
6243;SDS011;3155;49.940;8.450;2024-01-07T14:05:20;177.70;;;167.77;;
6243;SDS011;3155;49.940;8.450;2024-01-07T14:07:48;165.60;;;156.20;;
6243;SDS011;3155;49.940;8.450;2024-01-07T14:10:15;172.90;;;163.30;;
6243;SDS011;3155;49.940;8.450;2024-01-07T14:12:45;186.40;;;176.23;;
6243;SDS011;3155;49.940;8.450;2024-01-07T14:15:16;215.75;;;204.27;;
6243;SDS011;3155;49.940;8.450;2024-01-07T14:17:45;214.15;;;203.05;;
6243;SDS011;3155;49.940;8.450;2024-01-07T14:20:12;224.77;;;213.20;;
6243;SDS011;3155;49.940;8.450;2024-01-07T14:22:41;187.68;;;177.95;;
6243;SDS011;3155;49.940;8.450;2024-01-07T14:25:11;205.40;;;194.25;;
6243;SDS011;3155;49.940;8.450;2024-01-07T14:27:40;163.88;;;154.80;;
6243;SDS011;3155;49.940;8.450;2024-01-07T14:30:08;265.30;;;252.00;;
6243;SDS011;3155;49.940;8.450;2024-01-07T14:32:37;225.20;;;213.75;;
6243;SDS011;3155;49.940;8.450;2024-01-07T14:35:05;223.85;;;212.48;;
6243;SDS011;3155;49.940;8.450;2024-01-07T14:37:32;254.88;;;241.75;;
6243;SDS011;3155;49.940;8.450;2024-01-07T14:39:59;270.25;;;256.42;;